sensor_id;sensor_type;location;lat;lon;timestamp;P1;durP1;ratioP1;P2;durP2;ratioP2
26052;SDS011;13826;51.186;4.450;2022-07-06T00:00:04;9.20;;;3.15;;
26052;SDS011;13826;51.186;4.450;2022-07-06T00:02:31;11.27;;;3.10;;
26052;SDS011;13826;51.186;4.450;2022-07-06T00:04:56;7.43;;;2.97;;
26052;SDS011;13826;51.186;4.450;2022-07-06T00:07:22;8.35;;;2.90;;
26052;SDS011;13826;51.186;4.450;2022-07-06T00:09:48;9.93;;;3.15;;
26052;SDS011;13826;51.186;4.450;2022-07-06T00:12:15;11.45;;;2.90;;
26052;SDS011;13826;51.186;4.450;2022-07-06T00:14:40;10.68;;;3.05;;
26052;SDS011;13826;51.186;4.450;2022-07-06T00:17:06;11.68;;;3.00;;
26052;SDS011;13826;51.186;4.450;2022-07-06T00:19:32;7.60;;;3.65;;
26052;SDS011;13826;51.186;4.450;2022-07-06T00:21:58;7.90;;;3.10;;
26052;SDS011;13826;51.186;4.450;2022-07-06T00:24:24;6.50;;;3.28;;
26052;SDS011;13826;51.186;4.450;2022-07-06T00:26:49;8.63;;;3.13;;
26052;SDS011;13826;51.186;4.450;2022-07-06T00:29:15;11.15;;;3.55;;
26052;SDS011;13826;51.186;4.450;2022-07-06T00:31:41;9.07;;;3.03;;
26052;SDS011;13826;51.186;4.450;2022-07-06T00:34:06;9.18;;;3.22;;
26052;SDS011;13826;51.186;4.450;2022-07-06T00:36:32;10.02;;;3.83;;
26052;SDS011;13826;51.186;4.450;2022-07-06T00:38:58;10.93;;;3.60;;
26052;SDS011;13826;51.186;4.450;2022-07-06T00:41:23;8.80;;;3.67;;
26052;SDS011;13826;51.186;4.450;2022-07-06T00:43:50;8.63;;;3.83;;
26052;SDS011;13826;51.186;4.450;2022-07-06T00:46:17;11.52;;;3.20;;
26052;SDS011;13826;51.186;4.450;2022-07-06T00:48:43;6.30;;;3.50;;
26052;SDS011;13826;51.186;4.450;2022-07-06T00:51:09;14.85;;;4.25;;
26052;SDS011;13826;51.186;4.450;2022-07-06T00:53:36;9.60;;;3.38;;
26052;SDS011;13826;51.186;4.450;2022-07-06T00:56:02;10.73;;;4.20;;
26052;SDS011;13826;51.186;4.450;2022-07-06T00:58:28;12.30;;;4.15;;
26052;SDS011;13826;51.186;4.450;2022-07-06T01:00:54;8.80;;;3.60;;
26052;SDS011;13826;51.186;4.450;2022-07-06T01:03:19;12.70;;;3.95;;
26052;SDS011;13826;51.186;4.450;2022-07-06T01:05:45;6.60;;;3.50;;
26052;SDS011;13826;51.186;4.450;2022-07-06T01:08:11;12.13;;;3.88;;
26052;SDS011;13826;51.186;4.450;2022-07-06T01:10:37;12.88;;;3.80;;
26052;SDS011;13826;51.186;4.450;2022-07-06T01:13:03;17.92;;;3.83;;
26052;SDS011;13826;51.186;4.450;2022-07-06T01:15:29;12.85;;;3.92;;
26052;SDS011;13826;51.186;4.450;2022-07-06T01:17:55;10.50;;;3.72;;
26052;SDS011;13826;51.186;4.450;2022-07-06T01:20:21;8.68;;;3.65;;
26052;SDS011;13826;51.186;4.450;2022-07-06T01:22:50;10.07;;;3.67;;
26052;SDS011;13826;51.186;4.450;2022-07-06T01:25:18;12.30;;;3.28;;
26052;SDS011;13826;51.186;4.450;2022-07-06T01:27:44;12.30;;;3.65;;
26052;SDS011;13826;51.186;4.450;2022-07-06T01:30:14;12.30;;;4.20;;
26052;SDS011;13826;51.186;4.450;2022-07-06T01:32:42;9.95;;;3.60;;
26052;SDS011;13826;51.186;4.450;2022-07-06T01:35:10;11.73;;;3.97;;
26052;SDS011;13826;51.186;4.450;2022-07-06T01:37:37;12.63;;;4.00;;
26052;SDS011;13826;51.186;4.450;2022-07-06T01:40:03;12.95;;;3.90;;
26052;SDS011;13826;51.186;4.450;2022-07-06T01:42:31;8.00;;;3.60;;
26052;SDS011;13826;51.186;4.450;2022-07-06T01:44:56;7.72;;;4.05;;
26052;SDS011;13826;51.186;4.450;2022-07-06T01:47:22;9.82;;;4.03;;
26052;SDS011;13826;51.186;4.450;2022-07-06T01:49:48;8.77;;;4.15;;
26052;SDS011;13826;51.186;4.450;2022-07-06T01:52:14;10.45;;;3.83;;
26052;SDS011;13826;51.186;4.450;2022-07-06T01:54:40;8.90;;;4.28;;
26052;SDS011;13826;51.186;4.450;2022-07-06T01:57:06;7.75;;;3.50;;
26052;SDS011;13826;51.186;4.450;2022-07-06T01:59:32;11.43;;;4.00;;
26052;SDS011;13826;51.186;4.450;2022-07-06T02:01:57;9.50;;;3.97;;
26052;SDS011;13826;51.186;4.450;2022-07-06T02:04:23;8.95;;;4.00;;
26052;SDS011;13826;51.186;4.450;2022-07-06T02:06:49;10.75;;;4.38;;
26052;SDS011;13826;51.186;4.450;2022-07-06T02:09:15;6.88;;;4.20;;
26052;SDS011;13826;51.186;4.450;2022-07-06T02:11:41;11.52;;;4.25;;
26052;SDS011;13826;51.186;4.450;2022-07-06T02:14:07;10.85;;;4.20;;
26052;SDS011;13826;51.186;4.450;2022-07-06T02:16:33;15.18;;;3.95;;
26052;SDS011;13826;51.186;4.450;2022-07-06T02:18:59;8.52;;;3.95;;
26052;SDS011;13826;51.186;4.450;2022-07-06T02:21:24;14.80;;;4.43;;
26052;SDS011;13826;51.186;4.450;2022-07-06T02:23:50;6.80;;;4.05;;
26052;SDS011;13826;51.186;4.450;2022-07-06T02:26:15;11.77;;;4.32;;
26052;SDS011;13826;51.186;4.450;2022-07-06T02:28:41;23.35;;;4.88;;
26052;SDS011;13826;51.186;4.450;2022-07-06T02:31:07;12.93;;;4.55;;
26052;SDS011;13826;51.186;4.450;2022-07-06T02:33:32;8.23;;;4.20;;
26052;SDS011;13826;51.186;4.450;2022-07-06T02:35:58;10.38;;;4.32;;
26052;SDS011;13826;51.186;4.450;2022-07-06T02:38:24;10.77;;;4.32;;
26052;SDS011;13826;51.186;4.450;2022-07-06T02:40:49;11.48;;;4.18;;
26052;SDS011;13826;51.186;4.450;2022-07-06T02:43:15;11.25;;;4.00;;
26052;SDS011;13826;51.186;4.450;2022-07-06T02:45:41;11.35;;;4.80;;
26052;SDS011;13826;51.186;4.450;2022-07-06T02:48:06;11.30;;;5.03;;
26052;SDS011;13826;51.186;4.450;2022-07-06T02:50:32;9.02;;;3.75;;
26052;SDS011;13826;51.186;4.450;2022-07-06T02:52:58;9.43;;;4.40;;
26052;SDS011;13826;51.186;4.450;2022-07-06T02:55:23;8.57;;;4.20;;
26052;SDS011;13826;51.186;4.450;2022-07-06T02:57:49;8.45;;;4.32;;
26052;SDS011;13826;51.186;4.450;2022-07-06T03:00:15;10.50;;;4.47;;
26052;SDS011;13826;51.186;4.450;2022-07-06T03:02:41;10.65;;;4.75;;
26052;SDS011;13826;51.186;4.450;2022-07-06T03:05:07;9.30;;;4.15;;
26052;SDS011;13826;51.186;4.450;2022-07-06T03:07:33;8.45;;;4.50;;
26052;SDS011;13826;51.186;4.450;2022-07-06T03:09:59;22.73;;;4.88;;
26052;SDS011;13826;51.186;4.450;2022-07-06T03:12:24;10.32;;;4.68;;
26052;SDS011;13826;51.186;4.450;2022-07-06T03:14:50;13.40;;;5.13;;
26052;SDS011;13826;51.186;4.450;2022-07-06T03:17:16;13.05;;;5.00;;
26052;SDS011;13826;51.186;4.450;2022-07-06T03:19:41;9.88;;;4.55;;
26052;SDS011;13826;51.186;4.450;2022-07-06T03:22:07;10.00;;;4.60;;
26052;SDS011;13826;51.186;4.450;2022-07-06T03:24:33;9.60;;;4.63;;
26052;SDS011;13826;51.186;4.450;2022-07-06T03:26:58;9.93;;;4.47;;
26052;SDS011;13826;51.186;4.450;2022-07-06T03:29:24;13.70;;;5.68;;
26052;SDS011;13826;51.186;4.450;2022-07-06T03:31:50;14.95;;;4.40;;
26052;SDS011;13826;51.186;4.450;2022-07-06T03:34:15;9.68;;;4.60;;
26052;SDS011;13826;51.186;4.450;2022-07-06T03:36:41;9.32;;;3.97;;
26052;SDS011;13826;51.186;4.450;2022-07-06T03:39:07;12.68;;;4.20;;
26052;SDS011;13826;51.186;4.450;2022-07-06T03:41:32;12.82;;;4.85;;
26052;SDS011;13826;51.186;4.450;2022-07-06T03:43:58;13.80;;;4.90;;
26052;SDS011;13826;51.186;4.450;2022-07-06T03:46:24;17.00;;;4.93;;
26052;SDS011;13826;51.186;4.450;2022-07-06T03:48:50;11.75;;;5.15;;
26052;SDS011;13826;51.186;4.450;2022-07-06T03:51:16;10.63;;;4.78;;
26052;SDS011;13826;51.186;4.450;2022-07-06T03:53:42;15.82;;;5.60;;
26052;SDS011;13826;51.186;4.450;2022-07-06T03:56:07;6.88;;;4.95;;
26052;SDS011;13826;51.186;4.450;2022-07-06T03:58:52;11.18;;;4.88;;
26052;SDS011;13826;51.186;4.450;2022-07-06T04:01:18;12.93;;;5.10;;
26052;SDS011;13826;51.186;4.450;2022-07-06T04:03:44;8.60;;;5.38;;
26052;SDS011;13826;51.186;4.450;2022-07-06T04:06:09;12.35;;;5.45;;
26052;SDS011;13826;51.186;4.450;2022-07-06T04:08:35;12.65;;;5.90;;
26052;SDS011;13826;51.186;4.450;2022-07-06T04:11:01;15.18;;;6.10;;
26052;SDS011;13826;51.186;4.450;2022-07-06T04:13:27;12.15;;;5.97;;
26052;SDS011;13826;51.186;4.450;2022-07-06T04:15:53;11.05;;;6.00;;
26052;SDS011;13826;51.186;4.450;2022-07-06T04:18:19;14.43;;;5.65;;
26052;SDS011;13826;51.186;4.450;2022-07-06T04:20:44;13.32;;;6.72;;
26052;SDS011;13826;51.186;4.450;2022-07-06T04:23:10;12.88;;;6.32;;
26052;SDS011;13826;51.186;4.450;2022-07-06T04:25:36;17.33;;;6.60;;
26052;SDS011;13826;51.186;4.450;2022-07-06T04:28:02;15.40;;;6.40;;
26052;SDS011;13826;51.186;4.450;2022-07-06T04:30:28;11.75;;;5.70;;
26052;SDS011;13826;51.186;4.450;2022-07-06T04:32:54;8.95;;;6.30;;
26052;SDS011;13826;51.186;4.450;2022-07-06T04:35:20;10.82;;;5.63;;
26052;SDS011;13826;51.186;4.450;2022-07-06T04:37:46;15.05;;;6.18;;
26052;SDS011;13826;51.186;4.450;2022-07-06T04:40:12;16.10;;;5.78;;
26052;SDS011;13826;51.186;4.450;2022-07-06T04:42:38;16.75;;;7.60;;
26052;SDS011;13826;51.186;4.450;2022-07-06T04:45:04;22.42;;;7.03;;
26052;SDS011;13826;51.186;4.450;2022-07-06T04:47:31;8.35;;;5.78;;
26052;SDS011;13826;51.186;4.450;2022-07-06T04:49:56;12.07;;;5.70;;
26052;SDS011;13826;51.186;4.450;2022-07-06T04:52:22;10.48;;;5.82;;
26052;SDS011;13826;51.186;4.450;2022-07-06T04:54:48;14.25;;;6.30;;
26052;SDS011;13826;51.186;4.450;2022-07-06T04:57:14;11.73;;;6.22;;
26052;SDS011;13826;51.186;4.450;2022-07-06T04:59:39;12.50;;;5.88;;
26052;SDS011;13826;51.186;4.450;2022-07-06T05:02:05;15.88;;;5.78;;
26052;SDS011;13826;51.186;4.450;2022-07-06T05:04:31;12.02;;;5.57;;
26052;SDS011;13826;51.186;4.450;2022-07-06T05:06:57;15.65;;;6.00;;
26052;SDS011;13826;51.186;4.450;2022-07-06T05:09:22;15.88;;;7.00;;
26052;SDS011;13826;51.186;4.450;2022-07-06T05:11:48;13.45;;;5.82;;
26052;SDS011;13826;51.186;4.450;2022-07-06T05:14:13;17.95;;;6.75;;
26052;SDS011;13826;51.186;4.450;2022-07-06T05:16:39;17.48;;;6.13;;
26052;SDS011;13826;51.186;4.450;2022-07-06T05:19:05;9.35;;;5.20;;
26052;SDS011;13826;51.186;4.450;2022-07-06T05:21:30;12.48;;;5.45;;
26052;SDS011;13826;51.186;4.450;2022-07-06T05:23:56;19.60;;;5.80;;
26052;SDS011;13826;51.186;4.450;2022-07-06T05:26:22;15.85;;;5.72;;
26052;SDS011;13826;51.186;4.450;2022-07-06T05:28:47;12.40;;;5.07;;
26052;SDS011;13826;51.186;4.450;2022-07-06T05:31:13;16.02;;;4.68;;
26052;SDS011;13826;51.186;4.450;2022-07-06T05:33:39;15.32;;;5.15;;
26052;SDS011;13826;51.186;4.450;2022-07-06T05:36:04;15.15;;;4.57;;
26052;SDS011;13826;51.186;4.450;2022-07-06T05:38:30;17.27;;;4.93;;
26052;SDS011;13826;51.186;4.450;2022-07-06T05:40:56;11.38;;;4.82;;
26052;SDS011;13826;51.186;4.450;2022-07-06T05:43:21;11.63;;;4.80;;
26052;SDS011;13826;51.186;4.450;2022-07-06T05:45:47;13.23;;;4.72;;
26052;SDS011;13826;51.186;4.450;2022-07-06T05:48:13;15.45;;;5.20;;
26052;SDS011;13826;51.186;4.450;2022-07-06T05:50:57;14.20;;;4.68;;
26052;SDS011;13826;51.186;4.450;2022-07-06T05:53:23;15.75;;;4.80;;
26052;SDS011;13826;51.186;4.450;2022-07-06T05:55:48;14.73;;;4.28;;
26052;SDS011;13826;51.186;4.450;2022-07-06T05:58:14;13.25;;;4.07;;
26052;SDS011;13826;51.186;4.450;2022-07-06T06:00:40;15.23;;;4.00;;
26052;SDS011;13826;51.186;4.450;2022-07-06T06:03:06;17.08;;;3.58;;
26052;SDS011;13826;51.186;4.450;2022-07-06T06:05:31;13.80;;;3.55;;
26052;SDS011;13826;51.186;4.450;2022-07-06T06:07:57;7.55;;;2.85;;
26052;SDS011;13826;51.186;4.450;2022-07-06T06:10:23;7.47;;;2.65;;
26052;SDS011;13826;51.186;4.450;2022-07-06T06:12:49;9.70;;;2.85;;
26052;SDS011;13826;51.186;4.450;2022-07-06T06:15:15;9.07;;;2.72;;
26052;SDS011;13826;51.186;4.450;2022-07-06T06:17:42;7.82;;;2.00;;
26052;SDS011;13826;51.186;4.450;2022-07-06T06:20:09;7.53;;;2.50;;
26052;SDS011;13826;51.186;4.450;2022-07-06T06:22:55;7.10;;;2.20;;
26052;SDS011;13826;51.186;4.450;2022-07-06T06:25:35;7.15;;;2.22;;
26052;SDS011;13826;51.186;4.450;2022-07-06T06:28:03;5.47;;;2.03;;
26052;SDS011;13826;51.186;4.450;2022-07-06T06:30:30;10.50;;;2.20;;
26052;SDS011;13826;51.186;4.450;2022-07-06T06:35:38;12.48;;;2.47;;
26052;SDS011;13826;51.186;4.450;2022-07-06T06:38:07;8.82;;;2.30;;
26052;SDS011;13826;51.186;4.450;2022-07-06T06:40:33;15.10;;;2.88;;
26052;SDS011;13826;51.186;4.450;2022-07-06T06:42:59;12.25;;;2.67;;
26052;SDS011;13826;51.186;4.450;2022-07-06T06:45:25;12.05;;;2.45;;
26052;SDS011;13826;51.186;4.450;2022-07-06T06:47:50;9.20;;;2.47;;
26052;SDS011;13826;51.186;4.450;2022-07-06T06:50:16;16.02;;;2.42;;
26052;SDS011;13826;51.186;4.450;2022-07-06T06:52:42;8.98;;;1.80;;
26052;SDS011;13826;51.186;4.450;2022-07-06T06:55:07;7.05;;;1.50;;
26052;SDS011;13826;51.186;4.450;2022-07-06T06:57:33;4.90;;;1.40;;
26052;SDS011;13826;51.186;4.450;2022-07-06T06:59:59;5.45;;;1.58;;
26052;SDS011;13826;51.186;4.450;2022-07-06T07:02:25;6.70;;;1.73;;
26052;SDS011;13826;51.186;4.450;2022-07-06T07:04:51;5.65;;;1.10;;
26052;SDS011;13826;51.186;4.450;2022-07-06T07:07:16;8.43;;;1.30;;
26052;SDS011;13826;51.186;4.450;2022-07-06T07:09:42;11.68;;;1.70;;
26052;SDS011;13826;51.186;4.450;2022-07-06T07:12:10;9.30;;;2.33;;
26052;SDS011;13826;51.186;4.450;2022-07-06T07:14:37;4.75;;;1.30;;
26052;SDS011;13826;51.186;4.450;2022-07-06T07:17:03;5.53;;;1.80;;
26052;SDS011;13826;51.186;4.450;2022-07-06T07:19:29;6.00;;;1.75;;
26052;SDS011;13826;51.186;4.450;2022-07-06T07:21:54;9.15;;;1.38;;
26052;SDS011;13826;51.186;4.450;2022-07-06T07:24:20;3.80;;;1.30;;
26052;SDS011;13826;51.186;4.450;2022-07-06T07:26:45;7.10;;;1.20;;
26052;SDS011;13826;51.186;4.450;2022-07-06T07:29:11;8.82;;;1.60;;
26052;SDS011;13826;51.186;4.450;2022-07-06T07:31:37;5.65;;;1.50;;
26052;SDS011;13826;51.186;4.450;2022-07-06T07:34:02;4.55;;;1.50;;
26052;SDS011;13826;51.186;4.450;2022-07-06T07:36:28;5.80;;;1.40;;
26052;SDS011;13826;51.186;4.450;2022-07-06T07:38:54;6.60;;;1.83;;
26052;SDS011;13826;51.186;4.450;2022-07-06T07:41:19;6.60;;;1.40;;
26052;SDS011;13826;51.186;4.450;2022-07-06T07:43:45;4.43;;;1.48;;
26052;SDS011;13826;51.186;4.450;2022-07-06T07:46:11;3.67;;;1.20;;
26052;SDS011;13826;51.186;4.450;2022-07-06T07:48:36;4.00;;;1.60;;
26052;SDS011;13826;51.186;4.450;2022-07-06T07:51:02;6.72;;;1.90;;
26052;SDS011;13826;51.186;4.450;2022-07-06T07:53:28;3.55;;;1.13;;
26052;SDS011;13826;51.186;4.450;2022-07-06T07:55:54;4.13;;;1.52;;
26052;SDS011;13826;51.186;4.450;2022-07-06T07:58:19;4.75;;;1.30;;
26052;SDS011;13826;51.186;4.450;2022-07-06T08:00:45;6.65;;;1.88;;
26052;SDS011;13826;51.186;4.450;2022-07-06T08:03:11;6.60;;;2.00;;
26052;SDS011;13826;51.186;4.450;2022-07-06T08:05:37;4.18;;;1.33;;
26052;SDS011;13826;51.186;4.450;2022-07-06T08:08:03;8.20;;;1.85;;
26052;SDS011;13826;51.186;4.450;2022-07-06T08:10:29;7.15;;;1.55;;
26052;SDS011;13826;51.186;4.450;2022-07-06T08:12:55;8.93;;;1.55;;
26052;SDS011;13826;51.186;4.450;2022-07-06T08:15:21;6.25;;;1.60;;
26052;SDS011;13826;51.186;4.450;2022-07-06T08:17:47;5.28;;;1.65;;
26052;SDS011;13826;51.186;4.450;2022-07-06T08:20:13;5.05;;;1.38;;
26052;SDS011;13826;51.186;4.450;2022-07-06T08:22:39;5.40;;;1.48;;
26052;SDS011;13826;51.186;4.450;2022-07-06T08:25:06;4.93;;;1.60;;
26052;SDS011;13826;51.186;4.450;2022-07-06T08:27:33;5.53;;;1.65;;
26052;SDS011;13826;51.186;4.450;2022-07-06T08:29:58;6.95;;;1.60;;
26052;SDS011;13826;51.186;4.450;2022-07-06T08:32:25;2.80;;;1.17;;
26052;SDS011;13826;51.186;4.450;2022-07-06T08:34:51;7.13;;;1.67;;
26052;SDS011;13826;51.186;4.450;2022-07-06T08:37:18;3.40;;;1.33;;
26052;SDS011;13826;51.186;4.450;2022-07-06T08:39:44;2.25;;;1.40;;
26052;SDS011;13826;51.186;4.450;2022-07-06T08:42:10;7.38;;;1.73;;
26052;SDS011;13826;51.186;4.450;2022-07-06T08:44:37;6.18;;;1.65;;
26052;SDS011;13826;51.186;4.450;2022-07-06T08:47:06;5.95;;;1.42;;
26052;SDS011;13826;51.186;4.450;2022-07-06T08:49:33;9.82;;;2.28;;
26052;SDS011;13826;51.186;4.450;2022-07-06T08:52:01;4.82;;;1.60;;
26052;SDS011;13826;51.186;4.450;2022-07-06T08:54:28;5.13;;;1.50;;
26052;SDS011;13826;51.186;4.450;2022-07-06T08:56:54;2.45;;;1.08;;
26052;SDS011;13826;51.186;4.450;2022-07-06T08:59:20;4.78;;;1.40;;
26052;SDS011;13826;51.186;4.450;2022-07-06T09:01:46;3.40;;;1.38;;
26052;SDS011;13826;51.186;4.450;2022-07-06T09:04:12;5.75;;;1.55;;
26052;SDS011;13826;51.186;4.450;2022-07-06T09:06:42;8.68;;;1.73;;
26052;SDS011;13826;51.186;4.450;2022-07-06T09:09:10;6.30;;;1.73;;
26052;SDS011;13826;51.186;4.450;2022-07-06T09:11:42;4.65;;;1.40;;
26052;SDS011;13826;51.186;4.450;2022-07-06T09:14:09;6.15;;;1.65;;
26052;SDS011;13826;51.186;4.450;2022-07-06T09:16:34;4.60;;;1.35;;
26052;SDS011;13826;51.186;4.450;2022-07-06T09:19:00;8.68;;;1.80;;
26052;SDS011;13826;51.186;4.450;2022-07-06T09:21:30;4.13;;;1.80;;
26052;SDS011;13826;51.186;4.450;2022-07-06T09:24:02;4.82;;;1.42;;
26052;SDS011;13826;51.186;4.450;2022-07-06T09:26:33;3.00;;;1.40;;
26052;SDS011;13826;51.186;4.450;2022-07-06T09:28:59;8.98;;;2.40;;
26052;SDS011;13826;51.186;4.450;2022-07-06T09:31:25;3.97;;;1.48;;
26052;SDS011;13826;51.186;4.450;2022-07-06T09:33:55;15.13;;;3.03;;
26052;SDS011;13826;51.186;4.450;2022-07-06T09:41:48;5.50;;;1.50;;
26052;SDS011;13826;51.186;4.450;2022-07-06T09:44:20;5.93;;;1.63;;
26052;SDS011;13826;51.186;4.450;2022-07-06T09:46:57;8.33;;;1.50;;
26052;SDS011;13826;51.186;4.450;2022-07-06T09:49:26;12.57;;;2.28;;
26052;SDS011;13826;51.186;4.450;2022-07-06T09:51:54;7.13;;;1.40;;
26052;SDS011;13826;51.186;4.450;2022-07-06T09:54:21;5.55;;;1.42;;
26052;SDS011;13826;51.186;4.450;2022-07-06T09:56:48;5.72;;;1.75;;
26052;SDS011;13826;51.186;4.450;2022-07-06T09:59:19;9.43;;;1.77;;
26052;SDS011;13826;51.186;4.450;2022-07-06T10:02:05;5.85;;;1.50;;
26052;SDS011;13826;51.186;4.450;2022-07-06T10:04:32;3.00;;;1.50;;
26052;SDS011;13826;51.186;4.450;2022-07-06T10:06:58;9.07;;;1.80;;
26052;SDS011;13826;51.186;4.450;2022-07-06T10:09:26;3.53;;;1.52;;
26052;SDS011;13826;51.186;4.450;2022-07-06T10:11:54;6.13;;;1.50;;
26052;SDS011;13826;51.186;4.450;2022-07-06T10:14:22;5.50;;;1.60;;
26052;SDS011;13826;51.186;4.450;2022-07-06T10:16:53;3.92;;;1.60;;
26052;SDS011;13826;51.186;4.450;2022-07-06T10:19:21;5.53;;;1.60;;
26052;SDS011;13826;51.186;4.450;2022-07-06T10:21:47;8.20;;;1.45;;
26052;SDS011;13826;51.186;4.450;2022-07-06T10:24:13;6.30;;;1.40;;
26052;SDS011;13826;51.186;4.450;2022-07-06T10:26:40;6.57;;;1.50;;
26052;SDS011;13826;51.186;4.450;2022-07-06T10:29:06;6.28;;;1.73;;
26052;SDS011;13826;51.186;4.450;2022-07-06T10:31:32;8.40;;;2.17;;
26052;SDS011;13826;51.186;4.450;2022-07-06T10:34:01;6.07;;;1.70;;
26052;SDS011;13826;51.186;4.450;2022-07-06T10:36:30;4.05;;;1.42;;
26052;SDS011;13826;51.186;4.450;2022-07-06T10:38:55;6.53;;;2.15;;
26052;SDS011;13826;51.186;4.450;2022-07-06T10:41:31;4.82;;;1.73;;
26052;SDS011;13826;51.186;4.450;2022-07-06T10:46:58;6.32;;;1.83;;
26052;SDS011;13826;51.186;4.450;2022-07-06T10:49:24;5.82;;;1.48;;
26052;SDS011;13826;51.186;4.450;2022-07-06T10:51:52;5.55;;;1.80;;
26052;SDS011;13826;51.186;4.450;2022-07-06T10:54:18;5.60;;;1.73;;
26052;SDS011;13826;51.186;4.450;2022-07-06T10:56:49;9.00;;;1.63;;
26052;SDS011;13826;51.186;4.450;2022-07-06T11:04:36;3.72;;;1.70;;
26052;SDS011;13826;51.186;4.450;2022-07-06T11:07:07;7.88;;;1.80;;
26052;SDS011;13826;51.186;4.450;2022-07-06T11:09:34;8.18;;;2.30;;
26052;SDS011;13826;51.186;4.450;2022-07-06T11:12:11;5.68;;;1.77;;
26052;SDS011;13826;51.186;4.450;2022-07-06T11:14:41;7.65;;;2.15;;
26052;SDS011;13826;51.186;4.450;2022-07-06T11:17:09;7.68;;;1.80;;
26052;SDS011;13826;51.186;4.450;2022-07-06T11:19:36;4.82;;;1.80;;
26052;SDS011;13826;51.186;4.450;2022-07-06T11:22:05;8.55;;;2.03;;
26052;SDS011;13826;51.186;4.450;2022-07-06T11:24:36;4.88;;;1.35;;
26052;SDS011;13826;51.186;4.450;2022-07-06T11:27:03;4.38;;;1.70;;
26052;SDS011;13826;51.186;4.450;2022-07-06T11:29:29;6.93;;;2.25;;
26052;SDS011;13826;51.186;4.450;2022-07-06T11:31:57;4.97;;;1.20;;
26052;SDS011;13826;51.186;4.450;2022-07-06T11:34:26;5.28;;;1.50;;
26052;SDS011;13826;51.186;4.450;2022-07-06T11:37:04;6.47;;;1.95;;
26052;SDS011;13826;51.186;4.450;2022-07-06T11:39:32;6.47;;;1.73;;
26052;SDS011;13826;51.186;4.450;2022-07-06T11:42:00;3.47;;;1.38;;
26052;SDS011;13826;51.186;4.450;2022-07-06T11:44:28;6.22;;;1.55;;
26052;SDS011;13826;51.186;4.450;2022-07-06T11:46:54;7.95;;;1.77;;
26052;SDS011;13826;51.186;4.450;2022-07-06T11:49:22;4.38;;;1.33;;
26052;SDS011;13826;51.186;4.450;2022-07-06T11:51:48;5.10;;;1.80;;
26052;SDS011;13826;51.186;4.450;2022-07-06T11:54:15;6.88;;;1.73;;
26052;SDS011;13826;51.186;4.450;2022-07-06T11:56:48;11.10;;;1.70;;
26052;SDS011;13826;51.186;4.450;2022-07-06T11:59:22;3.53;;;1.33;;
26052;SDS011;13826;51.186;4.450;2022-07-06T12:01:56;4.32;;;1.40;;
26052;SDS011;13826;51.186;4.450;2022-07-06T12:06:49;4.38;;;1.88;;
26052;SDS011;13826;51.186;4.450;2022-07-06T12:09:15;11.65;;;2.55;;
26052;SDS011;13826;51.186;4.450;2022-07-06T12:11:40;5.00;;;2.08;;
26052;SDS011;13826;51.186;4.450;2022-07-06T12:14:16;7.75;;;1.52;;
26052;SDS011;13826;51.186;4.450;2022-07-06T12:16:43;6.20;;;1.95;;
26052;SDS011;13826;51.186;4.450;2022-07-06T12:19:09;5.40;;;1.60;;
26052;SDS011;13826;51.186;4.450;2022-07-06T12:21:36;5.50;;;1.90;;
26052;SDS011;13826;51.186;4.450;2022-07-06T12:24:16;4.72;;;1.80;;
26052;SDS011;13826;51.186;4.450;2022-07-06T12:26:46;6.30;;;1.92;;
26052;SDS011;13826;51.186;4.450;2022-07-06T12:29:13;4.85;;;1.98;;
26052;SDS011;13826;51.186;4.450;2022-07-06T12:31:40;7.88;;;2.08;;
26052;SDS011;13826;51.186;4.450;2022-07-06T12:34:13;6.15;;;2.00;;
26052;SDS011;13826;51.186;4.450;2022-07-06T12:39:13;8.05;;;3.40;;
26052;SDS011;13826;51.186;4.450;2022-07-06T12:41:44;6.00;;;2.10;;
26052;SDS011;13826;51.186;4.450;2022-07-06T12:44:10;10.10;;;2.97;;
26052;SDS011;13826;51.186;4.450;2022-07-06T12:46:37;9.32;;;2.72;;
26052;SDS011;13826;51.186;4.450;2022-07-06T12:49:10;6.00;;;2.33;;
26052;SDS011;13826;51.186;4.450;2022-07-06T12:54:18;8.25;;;2.88;;
26052;SDS011;13826;51.186;4.450;2022-07-06T12:56:58;8.63;;;2.20;;
26052;SDS011;13826;51.186;4.450;2022-07-06T12:59:23;4.47;;;2.00;;
26052;SDS011;13826;51.186;4.450;2022-07-06T13:01:50;10.05;;;3.35;;
26052;SDS011;13826;51.186;4.450;2022-07-06T13:04:17;8.52;;;3.50;;
26052;SDS011;13826;51.186;4.450;2022-07-06T13:06:42;7.50;;;2.90;;
26052;SDS011;13826;51.186;4.450;2022-07-06T13:09:08;14.20;;;2.63;;
26052;SDS011;13826;51.186;4.450;2022-07-06T13:11:34;9.18;;;3.00;;
26052;SDS011;13826;51.186;4.450;2022-07-06T13:13:59;7.15;;;2.65;;
26052;SDS011;13826;51.186;4.450;2022-07-06T13:16:25;5.13;;;2.63;;
26052;SDS011;13826;51.186;4.450;2022-07-06T13:18:57;10.23;;;3.10;;
26052;SDS011;13826;51.186;4.450;2022-07-06T13:21:22;9.50;;;3.30;;
26052;SDS011;13826;51.186;4.450;2022-07-06T13:23:48;7.00;;;2.65;;
26052;SDS011;13826;51.186;4.450;2022-07-06T13:26:13;10.00;;;3.10;;
26052;SDS011;13826;51.186;4.450;2022-07-06T13:28:39;9.98;;;2.92;;
26052;SDS011;13826;51.186;4.450;2022-07-06T13:31:05;12.18;;;2.88;;
26052;SDS011;13826;51.186;4.450;2022-07-06T13:33:30;6.90;;;2.65;;
26052;SDS011;13826;51.186;4.450;2022-07-06T13:35:56;11.50;;;2.83;;
26052;SDS011;13826;51.186;4.450;2022-07-06T13:38:22;11.52;;;3.80;;
26052;SDS011;13826;51.186;4.450;2022-07-06T13:40:47;9.82;;;3.60;;
26052;SDS011;13826;51.186;4.450;2022-07-06T13:43:13;8.57;;;3.60;;
26052;SDS011;13826;51.186;4.450;2022-07-06T13:45:39;11.20;;;3.33;;
26052;SDS011;13826;51.186;4.450;2022-07-06T13:48:04;12.90;;;3.90;;
26052;SDS011;13826;51.186;4.450;2022-07-06T13:50:30;11.85;;;3.75;;
26052;SDS011;13826;51.186;4.450;2022-07-06T13:52:57;9.48;;;4.00;;
26052;SDS011;13826;51.186;4.450;2022-07-06T13:55:23;10.25;;;4.38;;
26052;SDS011;13826;51.186;4.450;2022-07-06T13:57:49;12.00;;;3.97;;
26052;SDS011;13826;51.186;4.450;2022-07-06T14:00:15;13.60;;;3.90;;
26052;SDS011;13826;51.186;4.450;2022-07-06T14:02:43;11.40;;;3.70;;
26052;SDS011;13826;51.186;4.450;2022-07-06T14:05:09;6.35;;;3.15;;
26052;SDS011;13826;51.186;4.450;2022-07-06T14:07:36;11.90;;;3.83;;
26052;SDS011;13826;51.186;4.450;2022-07-06T14:10:02;11.20;;;3.25;;
26052;SDS011;13826;51.186;4.450;2022-07-06T14:12:28;9.55;;;3.97;;
26052;SDS011;13826;51.186;4.450;2022-07-06T14:14:54;6.85;;;3.38;;
26052;SDS011;13826;51.186;4.450;2022-07-06T14:17:20;11.68;;;3.50;;
26052;SDS011;13826;51.186;4.450;2022-07-06T14:19:47;6.38;;;3.50;;
26052;SDS011;13826;51.186;4.450;2022-07-06T14:22:14;8.82;;;3.58;;
26052;SDS011;13826;51.186;4.450;2022-07-06T14:24:40;8.20;;;3.22;;
26052;SDS011;13826;51.186;4.450;2022-07-06T14:27:06;8.35;;;3.50;;
26052;SDS011;13826;51.186;4.450;2022-07-06T14:29:31;11.07;;;3.90;;
26052;SDS011;13826;51.186;4.450;2022-07-06T14:31:57;9.38;;;3.30;;
26052;SDS011;13826;51.186;4.450;2022-07-06T14:34:23;12.35;;;4.10;;
26052;SDS011;13826;51.186;4.450;2022-07-06T14:36:49;11.40;;;4.70;;
26052;SDS011;13826;51.186;4.450;2022-07-06T14:39:15;9.02;;;3.65;;
26052;SDS011;13826;51.186;4.450;2022-07-06T14:41:41;11.48;;;3.90;;
26052;SDS011;13826;51.186;4.450;2022-07-06T14:44:07;7.60;;;3.40;;
26052;SDS011;13826;51.186;4.450;2022-07-06T14:46:33;5.50;;;3.10;;
26052;SDS011;13826;51.186;4.450;2022-07-06T14:48:59;8.27;;;3.28;;
26052;SDS011;13826;51.186;4.450;2022-07-06T14:51:26;10.27;;;3.55;;
26052;SDS011;13826;51.186;4.450;2022-07-06T14:53:51;8.48;;;3.28;;
26052;SDS011;13826;51.186;4.450;2022-07-06T14:56:17;10.75;;;3.28;;
26052;SDS011;13826;51.186;4.450;2022-07-06T14:58:43;11.93;;;3.67;;
26052;SDS011;13826;51.186;4.450;2022-07-06T15:01:09;10.63;;;3.05;;
26052;SDS011;13826;51.186;4.450;2022-07-06T15:03:35;14.07;;;3.42;;